Terminal Aerodrome Forecast
Issued by NWS

Home | Current Version | Previous Version | Text Only | Print | Product List | Glossary On
Versions: 1 2 3 4 5 6 7 8 9 10 11 12 13 14 15 16 17 18 19 20 21 22 23 24 25
000
FTUS43 KIND 301120
TAFBMG
TAF
KBMG 301120Z 3012/3112 13008KT P6SM VCTS OVC060CB
     FM301500 15009KT P6SM SHRA OVC080
      TEMPO 3015/3019 4SM TS OVC025CB
     FM301900 18013KT P6SM -SHRA VCTS OVC045CB
     FM302100 20012KT P6SM -SHRA VCTS BKN060CB
      TEMPO 3021/3024 4SM TS OVC025CB
     FM310300 19006KT P6SM VCTS BKN060CB
     FM310600 22006KT P6SM BKN040
      AMD LTD TO CLD VIS AND WIND TIL 301300=

USA.gov is the U.S. government's official web portal to all federal, state and local government web resources and services.